createdAt,value
2019-03-31T00:00:24.954Z,74.97
2019-03-31T00:02:52.691Z,93.57
2019-03-31T00:05:18.200Z,95.40
2019-03-31T00:07:43.719Z,91.37
2019-03-31T00:10:09.382Z,77.60
2019-03-31T00:12:35.920Z,68.97
2019-03-31T00:15:01.749Z,72.27
2019-03-31T00:17:27.398Z,78.53
2019-03-31T00:19:52.924Z,71.63
2019-03-31T00:22:18.445Z,65.60
2019-03-31T00:24:44.012Z,68.90
2019-03-31T00:27:09.589Z,75.90
2019-03-31T00:29:35.235Z,63.37
2019-03-31T00:32:01.872Z,57.67
2019-03-31T00:34:27.388Z,68.53
2019-03-31T00:36:52.897Z,57.93
2019-03-31T00:39:18.504Z,56.33
2019-03-31T00:41:44.128Z,46.80
2019-03-31T00:44:09.677Z,46.57
2019-03-31T00:46:35.296Z,40.63
2019-03-31T00:49:00.843Z,35.30
2019-03-31T00:51:26.375Z,31.27
2019-03-31T00:53:51.918Z,33.60
2019-03-31T00:56:17.427Z,32.60
2019-03-31T00:58:42.958Z,28.43
2019-03-31T01:01:10.687Z,34.93
2019-03-31T01:03:41.196Z,25.70
2019-03-31T01:06:06.960Z,27.10
2019-03-31T01:08:32.602Z,26.90
2019-03-31T01:10:59.131Z,33.93
2019-03-31T01:13:24.878Z,30.00
2019-03-31T01:15:50.968Z,29.43
2019-03-31T01:18:16.500Z,30.60
2019-03-31T01:20:42.132Z,25.13
2019-03-31T01:23:07.879Z,21.57
2019-03-31T01:25:33.510Z,22.80
2019-03-31T01:27:59.333Z,33.83
2019-03-31T01:30:25.014Z,27.90
2019-03-31T01:32:50.546Z,27.00
2019-03-31T01:35:16.579Z,24.43
2019-03-31T01:37:42.110Z,26.80
2019-03-31T01:40:07.762Z,25.80
2019-03-31T01:42:33.364Z,28.03
2019-03-31T01:44:58.959Z,25.10
2019-03-31T01:47:24.843Z,27.73
2019-03-31T01:49:50.444Z,23.47
2019-03-31T01:52:16.039Z,29.90
2019-03-31T01:54:41.573Z,27.47
2019-03-31T01:57:07.111Z,29.43
2019-03-31T01:59:32.630Z,29.70
2019-03-31T02:02:04.017Z,27.73
2019-03-31T02:04:25.957Z,25.90
2019-03-31T02:06:51.528Z,28.60
2019-03-31T02:09:17.031Z,29.57
2019-03-31T02:11:42.590Z,33.90
2019-03-31T02:14:08.440Z,33.20
2019-03-31T02:16:34.024Z,33.83
2019-03-31T02:18:59.547Z,33.40
2019-03-31T02:21:25.318Z,30.00
2019-03-31T02:23:50.871Z,34.00
2019-03-31T02:26:16.646Z,36.10
2019-03-31T02:28:42.580Z,28.13
2019-03-31T02:31:08.169Z,33.33
2019-03-31T02:33:33.680Z,28.83
2019-03-31T02:35:59.227Z,26.03
2019-03-31T02:38:25.011Z,35.70
2019-03-31T02:40:50.527Z,22.43
2019-03-31T02:43:16.071Z,33.37
2019-03-31T02:45:41.694Z,29.33
2019-03-31T02:48:07.315Z,22.67
2019-03-31T02:50:40.591Z,28.63
2019-03-31T02:53:06.129Z,29.47
2019-03-31T02:55:31.864Z,23.20
2019-03-31T02:57:57.584Z,21.53
2019-03-31T03:00:23.205Z,27.37
2019-03-31T03:02:48.833Z,25.23
2019-03-31T03:05:19.473Z,34.10
2019-03-31T03:07:43.719Z,23.67
2019-03-31T03:10:09.352Z,21.27
2019-03-31T03:12:36.765Z,22.60
2019-03-31T03:15:03.319Z,17.80
2019-03-31T03:17:28.930Z,16.27
2019-03-31T03:19:54.633Z,34.07
2019-03-31T03:22:20.363Z,16.40
2019-03-31T03:24:46.015Z,17.67
2019-03-31T03:27:11.596Z,23.93
2019-03-31T03:29:37.502Z,25.33
2019-03-31T03:32:03.007Z,18.97
2019-03-31T03:34:28.536Z,21.57
2019-03-31T03:36:54.060Z,18.53
2019-03-31T03:39:19.626Z,18.60
2019-03-31T03:41:45.246Z,20.93
2019-03-31T03:44:10.771Z,23.60
2019-03-31T03:46:36.307Z,19.37
2019-03-31T03:49:01.897Z,26.30
2019-03-31T03:51:27.481Z,22.10
2019-03-31T03:53:53.044Z,23.53
2019-03-31T03:56:18.567Z,21.80
2019-03-31T03:58:54.866Z,19.23
2019-03-31T04:01:20.567Z,21.43
2019-03-31T04:03:46.148Z,23.50
2019-03-31T04:06:12.015Z,21.80
2019-03-31T04:08:37.568Z,17.70
2019-03-31T04:11:04.980Z,16.87
2019-03-31T04:13:30.556Z,19.13
2019-03-31T04:15:56.089Z,16.00
2019-03-31T04:18:21.624Z,17.40
2019-03-31T04:20:47.180Z,14.43
2019-03-31T04:23:12.872Z,11.23
2019-03-31T04:25:38.504Z,17.07
2019-03-31T04:28:04.035Z,9.00
2019-03-31T04:30:29.864Z,15.20
2019-03-31T04:32:55.407Z,12.40
2019-03-31T04:35:21.447Z,8.10
2019-03-31T04:37:48.226Z,6.27
2019-03-31T04:40:13.798Z,13.10
2019-03-31T04:42:39.319Z,7.17
2019-03-31T04:45:04.893Z,10.07
2019-03-31T04:47:30.459Z,10.70
2019-03-31T04:49:56.042Z,11.43
2019-03-31T04:52:21.620Z,9.50
2019-03-31T04:54:47.148Z,9.80
2019-03-31T04:57:12.963Z,16.60
2019-03-31T04:59:38.537Z,5.10
2019-03-31T05:02:04.069Z,8.30
2019-03-31T05:04:29.603Z,6.70
2019-03-31T05:06:55.163Z,10.50
2019-03-31T05:09:24.532Z,6.17
2019-03-31T05:11:50.415Z,8.87
2019-03-31T05:14:15.964Z,10.00
2019-03-31T05:16:41.520Z,6.47
2019-03-31T05:19:07.175Z,7.17
2019-03-31T05:21:32.712Z,14.13
2019-03-31T05:23:59.547Z,8.17
2019-03-31T05:26:25.143Z,11.40
2019-03-31T05:28:50.772Z,18.17
2019-03-31T05:31:16.403Z,9.60
2019-03-31T05:33:41.930Z,10.30
2019-03-31T05:36:07.473Z,17.63
2019-03-31T05:38:33.151Z,14.83
2019-03-31T05:40:59.699Z,13.27
2019-03-31T05:43:25.218Z,14.70
2019-03-31T05:45:52.480Z,8.87
2019-03-31T05:48:18.182Z,14.80
2019-03-31T05:50:43.809Z,10.23
2019-03-31T05:53:09.364Z,15.13
2019-03-31T05:55:34.908Z,12.37
2019-03-31T05:58:00.447Z,12.47
2019-03-31T06:00:30.048Z,18.13
2019-03-31T06:02:55.602Z,8.63
2019-03-31T06:05:21.115Z,16.90
2019-03-31T06:07:46.631Z,17.33
2019-03-31T06:10:12.189Z,20.97
2019-03-31T06:12:38.110Z,15.37
2019-03-31T06:15:03.826Z,19.27
2019-03-31T06:17:29.473Z,18.73
2019-03-31T06:19:54.990Z,14.80
2019-03-31T06:22:20.549Z,15.63
2019-03-31T06:24:46.244Z,13.13
2019-03-31T06:27:11.897Z,11.03
2019-03-31T06:29:37.438Z,11.50
2019-03-31T06:32:03.381Z,15.43
2019-03-31T06:34:28.885Z,16.40
2019-03-31T06:36:54.403Z,19.47
2019-03-31T06:39:20.106Z,10.00
2019-03-31T06:41:45.727Z,8.50
2019-03-31T06:44:11.487Z,15.40
2019-03-31T06:46:37.037Z,14.67
2019-03-31T06:49:02.555Z,18.87
2019-03-31T06:51:28.069Z,16.13
2019-03-31T06:53:53.610Z,17.20
2019-03-31T06:56:19.144Z,24.90
2019-03-31T06:58:44.664Z,26.07
2019-03-31T07:01:10.191Z,22.17
2019-03-31T07:03:35.722Z,21.07
2019-03-31T07:06:01.247Z,21.20
2019-03-31T07:08:26.787Z,27.23
2019-03-31T07:10:52.311Z,13.97
2019-03-31T07:13:17.937Z,18.53
2019-03-31T07:15:43.467Z,24.43
2019-03-31T07:18:09.046Z,20.73
2019-03-31T07:20:34.575Z,14.60
2019-03-31T07:23:00.112Z,16.30
2019-03-31T07:25:25.647Z,13.83
2019-03-31T07:27:51.168Z,19.77
2019-03-31T07:30:17.844Z,11.40
2019-03-31T07:32:44.411Z,18.73
2019-03-31T07:35:18.307Z,25.27
2019-03-31T07:37:47.263Z,26.13
2019-03-31T07:40:07.236Z,15.50
2019-03-31T07:42:32.963Z,14.40
2019-03-31T07:44:58.507Z,22.33
2019-03-31T07:47:24.111Z,15.07
2019-03-31T07:49:49.657Z,19.40
2019-03-31T07:52:15.169Z,19.57
2019-03-31T07:54:40.747Z,12.57
2019-03-31T07:57:07.114Z,20.73
2019-03-31T07:59:33.079Z,25.73
2019-03-31T08:01:58.611Z,16.53
2019-03-31T08:04:24.159Z,16.93
2019-03-31T08:06:49.682Z,15.23
2019-03-31T08:09:15.295Z,18.40
2019-03-31T08:11:40.888Z,15.90
2019-03-31T08:14:06.611Z,14.57
2019-03-31T08:16:32.139Z,25.27
2019-03-31T08:18:57.695Z,16.83
2019-03-31T08:21:23.214Z,18.33
2019-03-31T08:23:48.784Z,16.17
2019-03-31T08:26:14.383Z,20.33
2019-03-31T08:28:39.927Z,29.23
2019-03-31T08:31:06.783Z,26.10
2019-03-31T08:33:32.399Z,24.27
2019-03-31T08:35:58.078Z,35.73
2019-03-31T08:38:24.622Z,17.90
2019-03-31T08:40:50.403Z,15.27
2019-03-31T08:43:15.967Z,18.50
2019-03-31T08:45:41.521Z,14.50
2019-03-31T08:48:07.021Z,10.37
2019-03-31T08:50:34.788Z,19.57
2019-03-31T08:52:59.991Z,10.93
2019-03-31T08:55:25.519Z,11.57
2019-03-31T08:57:51.040Z,10.13
2019-03-31T09:00:18.791Z,14.73
2019-03-31T09:02:44.400Z,6.00
2019-03-31T09:05:10.080Z,11.77
2019-03-31T09:07:35.723Z,6.00
2019-03-31T09:10:01.473Z,11.73
2019-03-31T09:12:27.000Z,7.50
2019-03-31T09:14:52.551Z,14.10
2019-03-31T09:17:18.076Z,9.97
2019-03-31T09:19:43.607Z,5.30
2019-03-31T09:22:09.165Z,9.43
2019-03-31T09:24:34.660Z,10.43
2019-03-31T09:27:00.431Z,8.73
2019-03-31T09:29:26.111Z,14.90
2019-03-31T09:31:51.685Z,22.17
2019-03-31T09:34:17.470Z,7.53
2019-03-31T09:36:43.189Z,6.73
2019-03-31T09:39:08.703Z,8.67
2019-03-31T09:41:34.339Z,24.63
2019-03-31T09:43:59.905Z,7.43
2019-03-31T09:46:25.522Z,15.07
2019-03-31T09:48:51.255Z,9.13
2019-03-31T09:51:16.800Z,9.40
2019-03-31T09:53:42.318Z,7.23
2019-03-31T09:56:07.841Z,22.17
2019-03-31T09:58:33.377Z,18.13
2019-03-31T10:00:58.917Z,6.57
2019-03-31T10:03:24.449Z,6.90
2019-03-31T10:05:50.232Z,6.73
2019-03-31T10:08:15.866Z,6.77
2019-03-31T10:10:41.394Z,9.77
2019-03-31T10:13:07.047Z,8.43
2019-03-31T10:15:32.579Z,5.77
2019-03-31T10:17:58.095Z,6.67
2019-03-31T10:20:23.743Z,6.80
2019-03-31T10:22:49.262Z,5.90
2019-03-31T10:25:14.792Z,12.60
2019-03-31T10:27:40.486Z,6.57
2019-03-31T10:30:06.292Z,11.30
2019-03-31T10:32:31.843Z,16.27
2019-03-31T10:34:57.349Z,9.93
2019-03-31T10:37:22.898Z,11.10
2019-03-31T10:39:48.428Z,9.80
2019-03-31T10:42:14.000Z,4.37
2019-03-31T10:44:39.787Z,14.60
2019-03-31T10:47:05.327Z,14.60
2019-03-31T10:49:30.885Z,11.30
2019-03-31T10:51:56.473Z,11.83
2019-03-31T10:54:22.101Z,10.23
2019-03-31T10:56:47.680Z,10.73
2019-03-31T10:59:13.191Z,16.30
2019-03-31T11:01:38.798Z,7.33
2019-03-31T11:04:04.385Z,9.83
2019-03-31T11:06:29.930Z,14.33
2019-03-31T11:08:55.462Z,12.50
2019-03-31T11:11:21.100Z,9.97
2019-03-31T11:13:46.723Z,9.33
2019-03-31T11:16:12.240Z,8.80
2019-03-31T11:18:38.074Z,10.57
2019-03-31T11:21:05.528Z,7.63
2019-03-31T11:23:31.647Z,9.63
2019-03-31T11:25:57.224Z,9.60
2019-03-31T11:28:22.804Z,9.23
2019-03-31T11:30:48.335Z,8.77
2019-03-31T11:33:13.875Z,12.47
2019-03-31T11:35:39.436Z,9.23
2019-03-31T11:38:05.174Z,8.50
2019-03-31T11:40:30.691Z,11.33
2019-03-31T11:42:56.315Z,12.93
2019-03-31T11:45:22.502Z,9.27
2019-03-31T11:47:48.443Z,31.10
2019-03-31T11:50:14.199Z,19.80
2019-03-31T11:52:39.717Z,19.83
2019-03-31T11:55:05.828Z,10.13
2019-03-31T11:57:31.359Z,12.80
2019-03-31T11:59:56.910Z,11.27
2019-03-31T12:02:27.530Z,15.83
2019-03-31T12:04:50.982Z,11.93
2019-03-31T12:07:27.266Z,14.77
2019-03-31T12:09:44.052Z,7.40
2019-03-31T12:12:09.575Z,13.00
2019-03-31T12:14:35.118Z,11.73
2019-03-31T12:17:00.638Z,14.87
2019-03-31T12:19:26.197Z,10.40
2019-03-31T12:21:51.755Z,7.87
2019-03-31T12:24:17.322Z,13.30
2019-03-31T12:26:42.846Z,18.37
2019-03-31T12:29:08.434Z,11.10
2019-03-31T12:31:34.115Z,6.70
2019-03-31T12:33:59.633Z,9.77
2019-03-31T12:36:25.151Z,11.13
2019-03-31T12:38:53.729Z,12.83
2019-03-31T12:41:18.283Z,13.13
2019-03-31T12:43:43.806Z,10.00
2019-03-31T12:46:09.332Z,13.33
2019-03-31T12:48:35.003Z,14.63
2019-03-31T12:51:00.530Z,13.57
2019-03-31T12:53:26.085Z,16.13
2019-03-31T12:55:59.982Z,11.37
2019-03-31T12:58:19.059Z,6.83
2019-03-31T13:00:44.580Z,13.70
2019-03-31T13:03:10.131Z,18.80
2019-03-31T13:05:35.646Z,21.10
2019-03-31T13:08:01.173Z,17.73
2019-03-31T13:10:26.699Z,14.73
2019-03-31T13:12:52.309Z,10.87
2019-03-31T13:15:17.923Z,6.90
2019-03-31T13:17:43.447Z,14.87
2019-03-31T13:20:09.163Z,12.43
2019-03-31T13:22:34.713Z,11.63
2019-03-31T13:25:02.323Z,15.63
2019-03-31T13:27:28.682Z,11.80
2019-03-31T13:29:54.227Z,20.23
2019-03-31T13:32:19.757Z,10.40
2019-03-31T13:34:45.306Z,10.93
2019-03-31T13:37:10.855Z,15.33
2019-03-31T13:39:36.386Z,10.73
2019-03-31T13:42:01.925Z,7.47
2019-03-31T13:44:28.450Z,15.83
2019-03-31T13:46:54.016Z,6.57
2019-03-31T13:49:19.563Z,11.57
2019-03-31T13:51:45.075Z,13.00
2019-03-31T13:54:10.671Z,11.77
2019-03-31T13:56:36.841Z,11.37
2019-03-31T13:59:02.715Z,7.67
2019-03-31T14:01:28.326Z,10.80
2019-03-31T14:03:53.859Z,11.30
2019-03-31T14:06:19.391Z,12.23
2019-03-31T14:08:44.908Z,8.90
2019-03-31T14:11:10.449Z,14.00
2019-03-31T14:13:36.007Z,16.00
2019-03-31T14:16:01.552Z,15.73
2019-03-31T14:18:27.104Z,12.53
2019-03-31T14:20:52.650Z,9.50
2019-03-31T14:23:18.215Z,12.83
2019-03-31T14:25:43.779Z,5.77
2019-03-31T14:28:09.416Z,12.37
2019-03-31T14:30:35.029Z,16.60
2019-03-31T14:33:00.563Z,10.27
2019-03-31T14:35:26.199Z,7.60
2019-03-31T14:37:52.078Z,14.00
2019-03-31T14:40:17.612Z,4.90
2019-03-31T14:42:43.158Z,9.20
2019-03-31T14:45:15.864Z,9.70
2019-03-31T14:47:43.804Z,14.97
2019-03-31T14:50:11.235Z,13.23
2019-03-31T14:52:36.803Z,7.60
2019-03-31T14:55:03.149Z,10.43
2019-03-31T14:57:28.847Z,17.00
2019-03-31T14:59:54.621Z,12.73
2019-03-31T15:02:20.323Z,13.37
2019-03-31T15:04:46.025Z,18.57
2019-03-31T15:07:11.568Z,13.63
2019-03-31T15:09:37.153Z,10.97
2019-03-31T15:12:02.883Z,11.07
2019-03-31T15:14:28.576Z,10.10
2019-03-31T15:16:54.089Z,9.97
2019-03-31T15:19:19.631Z,9.13
2019-03-31T15:21:45.179Z,10.60
2019-03-31T15:24:10.741Z,9.43
2019-03-31T15:26:36.303Z,12.30
2019-03-31T15:29:01.825Z,12.53
2019-03-31T15:31:27.380Z,7.17
2019-03-31T15:33:52.917Z,9.27
2019-03-31T15:36:18.451Z,6.20
2019-03-31T15:38:43.996Z,7.77
2019-03-31T15:41:20.698Z,10.73
2019-03-31T15:43:38.029Z,7.70
2019-03-31T15:46:03.556Z,6.80
2019-03-31T15:48:29.096Z,6.57
2019-03-31T15:50:56.626Z,14.40
2019-03-31T15:53:22.192Z,10.27
2019-03-31T15:55:47.758Z,10.03
2019-03-31T15:58:13.313Z,7.63
2019-03-31T16:00:38.922Z,9.70
2019-03-31T16:03:04.655Z,9.93
2019-03-31T16:05:30.643Z,8.50
2019-03-31T16:07:56.668Z,10.33
2019-03-31T16:10:23.127Z,9.90
2019-03-31T16:12:48.982Z,20.60
2019-03-31T16:15:14.630Z,11.67
2019-03-31T16:17:40.178Z,9.90
2019-03-31T16:20:05.950Z,21.40
2019-03-31T16:22:31.559Z,12.60
2019-03-31T16:24:59.042Z,12.57
2019-03-31T16:27:24.679Z,17.27
2019-03-31T16:29:50.316Z,11.93
2019-03-31T16:32:15.871Z,13.43
2019-03-31T16:34:41.440Z,12.83
2019-03-31T16:37:07.068Z,12.60
2019-03-31T16:39:37.982Z,13.97
2019-03-31T16:42:00.034Z,10.23
2019-03-31T16:44:25.584Z,8.93
2019-03-31T16:46:51.116Z,15.20
2019-03-31T16:49:16.639Z,9.33
2019-03-31T16:51:42.222Z,12.90
2019-03-31T16:54:08.155Z,14.00
2019-03-31T16:56:33.689Z,8.63
2019-03-31T16:58:59.528Z,5.90
2019-03-31T17:01:25.120Z,10.57
2019-03-31T17:03:50.649Z,12.53
2019-03-31T17:06:16.306Z,8.60
2019-03-31T17:08:41.822Z,6.30
2019-03-31T17:11:07.470Z,6.03
2019-03-31T17:13:33.008Z,8.80
2019-03-31T17:15:58.593Z,7.73
2019-03-31T17:18:24.416Z,8.57
2019-03-31T17:20:49.951Z,12.30
2019-03-31T17:23:15.750Z,7.20
2019-03-31T17:25:41.343Z,3.80
2019-03-31T17:28:09.985Z,11.07
2019-03-31T17:30:34.409Z,8.47
2019-03-31T17:32:59.717Z,10.30
2019-03-31T17:35:25.095Z,12.30
2019-03-31T17:37:50.312Z,7.43
2019-03-31T17:40:15.484Z,8.37
2019-03-31T17:42:40.700Z,10.80
2019-03-31T17:45:07.082Z,6.50
2019-03-31T17:47:32.274Z,6.30
2019-03-31T17:49:57.543Z,7.60
2019-03-31T17:52:22.716Z,6.53
2019-03-31T17:54:47.914Z,15.73
2019-03-31T17:57:13.527Z,19.77
2019-03-31T17:59:38.772Z,14.43
2019-03-31T18:02:04.091Z,6.00
2019-03-31T18:04:29.234Z,13.37
2019-03-31T18:06:54.454Z,10.30
2019-03-31T18:09:20.183Z,15.30
2019-03-31T18:11:45.793Z,23.77
2019-03-31T18:14:11.350Z,14.40
2019-03-31T18:16:36.915Z,17.70
2019-03-31T18:19:03.601Z,23.03
2019-03-31T18:21:29.299Z,15.63
2019-03-31T18:23:55.013Z,19.40
2019-03-31T18:26:20.533Z,21.67
2019-03-31T18:28:45.972Z,12.07
2019-03-31T18:31:11.301Z,15.80
2019-03-31T18:33:36.592Z,11.30
2019-03-31T18:36:01.777Z,14.60
2019-03-31T18:38:28.077Z,16.97
2019-03-31T18:40:53.277Z,12.57
2019-03-31T18:43:18.449Z,10.50
2019-03-31T18:45:43.787Z,17.17
2019-03-31T18:48:09.167Z,9.80
2019-03-31T18:50:34.370Z,13.93
2019-03-31T18:53:00.151Z,14.30
2019-03-31T18:55:33.101Z,8.90
2019-03-31T18:58:00.320Z,12.93
2019-03-31T19:00:28.775Z,13.23
2019-03-31T19:03:12.874Z,10.67
2019-03-31T19:05:43.033Z,21.47
2019-03-31T19:08:15.931Z,18.67
2019-03-31T19:10:49.671Z,19.80
2019-03-31T19:13:31.811Z,11.07
2019-03-31T19:16:02.253Z,9.70
2019-03-31T19:18:32.389Z,11.50
2019-03-31T19:21:11.482Z,13.17
2019-03-31T19:23:31.359Z,10.23
2019-03-31T19:26:04.486Z,11.20
2019-03-31T19:28:46.645Z,8.13
2019-03-31T19:31:30.518Z,13.10
2019-03-31T19:34:06.399Z,15.77
2019-03-31T19:36:42.347Z,14.90
2019-03-31T19:39:13.322Z,8.63
2019-03-31T19:41:46.397Z,15.07
2019-03-31T19:44:17.590Z,10.43
2019-03-31T19:46:45.063Z,12.80
2019-03-31T19:49:12.218Z,12.53
2019-03-31T19:51:48.026Z,10.83
2019-03-31T19:54:27.327Z,19.63
2019-03-31T19:56:54.745Z,24.87
2019-03-31T19:59:22.143Z,13.73
2019-03-31T20:01:49.200Z,10.10
2019-03-31T20:04:28.564Z,8.07
2019-03-31T20:07:13.568Z,9.67
2019-03-31T20:09:58.570Z,14.07
2019-03-31T20:12:26.639Z,14.70
2019-03-31T20:15:05.801Z,16.60
2019-03-31T20:17:40.416Z,12.03
2019-03-31T20:20:07.758Z,16.20
2019-03-31T20:22:34.810Z,18.60
2019-03-31T20:25:16.534Z,12.83
2019-03-31T20:27:59.953Z,12.47
2019-03-31T20:30:42.240Z,11.03
2019-03-31T20:33:14.893Z,14.07
2019-03-31T20:35:58.119Z,7.27
2019-03-31T20:38:31.118Z,16.23
2019-03-31T20:41:03.920Z,13.80
2019-03-31T20:43:33.725Z,13.33
2019-03-31T20:45:58.904Z,13.90
2019-03-31T20:48:24.106Z,13.87
2019-03-31T20:50:49.334Z,7.70
2019-03-31T20:53:14.472Z,13.97
2019-03-31T20:55:39.670Z,32.03
2019-03-31T20:58:04.896Z,10.93
2019-03-31T21:00:30.117Z,15.20
2019-03-31T21:02:55.372Z,9.07
2019-03-31T21:05:20.523Z,6.60
2019-03-31T21:07:45.680Z,10.90
2019-03-31T21:10:11.254Z,6.70
2019-03-31T21:12:36.440Z,7.13
2019-03-31T21:15:01.720Z,13.10
2019-03-31T21:17:26.895Z,9.83
2019-03-31T21:19:52.051Z,6.13
2019-03-31T21:22:17.212Z,12.87
2019-03-31T21:24:42.372Z,14.80
2019-03-31T21:27:07.519Z,10.57
2019-03-31T21:29:32.699Z,10.00
2019-03-31T21:31:57.843Z,10.00
2019-03-31T21:34:23.066Z,11.07
2019-03-31T21:36:48.231Z,11.80
2019-03-31T21:39:13.478Z,7.30
2019-03-31T21:41:38.624Z,12.90
2019-03-31T21:44:03.779Z,13.43
2019-03-31T21:46:28.923Z,12.40
2019-03-31T21:48:54.379Z,7.77
2019-03-31T21:51:19.547Z,12.30
2019-03-31T21:53:44.753Z,17.43
2019-03-31T21:56:09.892Z,14.73
2019-03-31T21:58:35.050Z,9.20
2019-03-31T22:01:00.546Z,17.37
2019-03-31T22:03:25.779Z,12.50
2019-03-31T22:05:51.043Z,11.47
2019-03-31T22:08:16.401Z,10.03
2019-03-31T22:10:41.555Z,8.83
2019-03-31T22:13:06.819Z,4.60
2019-03-31T22:15:32.011Z,11.73
2019-03-31T22:17:57.168Z,8.93
2019-03-31T22:20:22.451Z,5.80
2019-03-31T22:22:47.596Z,21.53
2019-03-31T22:25:12.867Z,16.03
2019-03-31T22:27:38.150Z,9.77
2019-03-31T22:30:05.713Z,10.80
2019-03-31T22:32:30.883Z,10.57
2019-03-31T22:34:56.157Z,10.50
2019-03-31T22:37:21.327Z,10.80
2019-03-31T22:39:46.569Z,11.73
2019-03-31T22:42:11.727Z,8.43
2019-03-31T22:44:36.879Z,6.60
2019-03-31T22:47:02.151Z,7.67
2019-03-31T22:49:27.350Z,16.67
2019-03-31T22:51:56.211Z,19.47
2019-03-31T22:54:19.866Z,10.17
2019-03-31T22:56:45.036Z,15.73
2019-03-31T22:59:10.217Z,11.60
2019-03-31T23:01:35.423Z,9.70
2019-03-31T23:04:00.575Z,8.93
2019-03-31T23:06:25.726Z,11.23
2019-03-31T23:08:50.904Z,11.97
2019-03-31T23:11:16.092Z,13.03
2019-03-31T23:13:41.251Z,17.30
2019-03-31T23:16:06.717Z,8.87
2019-03-31T23:18:31.862Z,12.90
2019-03-31T23:20:56.994Z,15.43
2019-03-31T23:23:22.174Z,10.10
2019-03-31T23:25:47.312Z,11.93
2019-03-31T23:28:12.462Z,13.40
2019-03-31T23:30:37.641Z,9.27
2019-03-31T23:33:02.783Z,9.43
2019-03-31T23:35:27.935Z,12.67
2019-03-31T23:37:54.080Z,17.53
2019-03-31T23:40:19.219Z,10.23
2019-03-31T23:42:44.387Z,14.27
2019-03-31T23:45:09.619Z,6.47
2019-03-31T23:47:34.882Z,7.50
2019-03-31T23:50:00.161Z,10.07
2019-03-31T23:52:25.561Z,12.30
2019-03-31T23:54:50.763Z,12.30
2019-03-31T23:57:15.930Z,7.50
2019-03-31T23:59:41.133Z,8.90
